Time;durP1;ratioP1;P1;durP2;ratioP2;P2;SDS_P1;SDS_P2;PMS_P1;PMS_P2;Temp;Humidity;BMP_temperature;BMP_pressure;BME280_temperature;BME280_humidity;BME280_pressure;Samples;Min_cycle;Max_cycle;Signal;HPM_P1;HPM_P2
2022/08/29 00:01:12;;;;;;;2.40;1.77;;;;;;;;;;5091145;28;20228;-77
2022/08/29 00:03:38;;;;;;;3.63;1.70;;;;;;;;;;5074476;28;20243;-77
2022/08/29 00:06:04;;;;;;;4.57;1.93;;;;;;;;;;5074236;28;20172;-77
2022/08/29 00:08:30;;;;;;;2.57;1.70;;;;;;;;;;5090826;28;20236;-77
2022/08/29 00:10:56;;;;;;;3.20;1.80;;;;;;;;;;5074346;28;20184;-77
2022/08/29 00:13:22;;;;;;;3.03;1.80;;;;;;;;;;5074534;28;20219;-77
2022/08/29 00:15:48;;;;;;;3.47;1.80;;;;;;;;;;5091996;28;20639;-77
2022/08/29 00:18:15;;;;;;;2.67;1.60;;;;;;;;;;5074330;28;20180;-77
2022/08/29 00:20:41;;;;;;;2.33;1.73;;;;;;;;;;5074259;28;20253;-77
2022/08/29 00:23:08;;;;;;;2.90;1.77;;;;;;;;;;5090845;28;20215;-77
2022/08/29 00:25:34;;;;;;;3.10;2.10;;;;;;;;;;5090914;28;20271;-77
2022/08/29 00:28:00;;;;;;;2.83;1.90;;;;;;;;;;5090696;28;20212;-77
2022/08/29 00:30:26;;;;;;;3.00;1.80;;;;;;;;;;5090709;28;20238;-77
2022/08/29 00:32:52;;;;;;;4.00;1.90;;;;;;;;;;5090727;28;20607;-77
2022/08/29 00:35:23;;;;;;;3.73;1.90;;;;;;;;;;5092252;28;20160;-77
2022/08/29 00:37:53;;;;;;;2.70;1.77;;;;;;;;;;5090751;28;20195;-77
2022/08/29 00:40:21;;;;;;;5.03;2.00;;;;;;;;;;5092109;28;20165;-77
2022/08/29 00:42:47;;;;;;;3.30;1.80;;;;;;;;;;5073975;28;20288;-77
2022/08/29 00:45:13;;;;;;;3.73;1.80;;;;;;;;;;5090614;28;20179;-77
2022/08/29 00:47:42;;;;;;;3.37;1.80;;;;;;;;;;5073989;28;20264;-77
2022/08/29 00:50:09;;;;;;;2.60;1.70;;;;;;;;;;5090703;28;20169;-77
2022/08/29 00:52:41;;;;;;;3.00;1.70;;;;;;;;;;5090687;28;20230;-77
2022/08/29 00:55:11;;;;;;;4.10;1.70;;;;;;;;;;5090516;28;20177;-77
2022/08/29 00:57:38;;;;;;;3.63;1.83;;;;;;;;;;5073933;28;20320;-77
2022/08/29 01:00:05;;;;;;;3.63;1.90;;;;;;;;;;5090719;28;20186;-77
2022/08/29 01:02:31;;;;;;;3.40;1.73;;;;;;;;;;5090558;28;20222;-77
2022/08/29 01:04:59;;;;;;;4.00;2.17;;;;;;;;;;5073752;28;20195;-77
2022/08/29 01:07:25;;;;;;;2.73;1.90;;;;;;;;;;5090397;28;20176;-77
2022/08/29 01:09:51;;;;;;;2.90;2.00;;;;;;;;;;5073658;28;20184;-77
2022/08/29 01:12:19;;;;;;;2.23;1.57;;;;;;;;;;5090718;28;20693;-77
2022/08/29 01:14:50;;;;;;;2.47;1.60;;;;;;;;;;5074024;28;20272;-77
2022/08/29 01:17:20;;;;;;;2.90;1.77;;;;;;;;;;5073579;28;20180;-77
2022/08/29 01:19:54;;;;;;;2.23;1.90;;;;;;;;;;5090455;28;20181;-77
2022/08/29 01:22:39;;;;;;;3.33;2.10;;;;;;;;;;5090145;28;20409;-77
2022/08/29 01:25:07;;;;;;;4.77;2.00;;;;;;;;;;5090606;28;20196;-77
2022/08/29 01:27:36;;;;;;;3.47;2.10;;;;;;;;;;5092395;28;20172;-77
2022/08/29 01:30:02;;;;;;;2.90;2.00;;;;;;;;;;5093919;28;20333;-77
2022/08/29 01:32:30;;;;;;;3.27;1.97;;;;;;;;;;5093813;28;20689;-77
2022/08/29 01:34:56;;;;;;;2.60;1.80;;;;;;;;;;5093911;28;20176;-77
2022/08/29 01:37:22;;;;;;;2.27;1.73;;;;;;;;;;5093629;28;20180;-77
2022/08/29 01:39:48;;;;;;;2.77;1.90;;;;;;;;;;5077206;28;20187;-77
2022/08/29 01:42:16;;;;;;;4.03;2.20;;;;;;;;;;5076807;28;20770;-77
2022/08/29 01:44:47;;;;;;;2.53;1.80;;;;;;;;;;5076956;28;20176;-77
2022/08/29 01:47:13;;;;;;;3.37;1.80;;;;;;;;;;5093446;28;20589;-77
2022/08/29 01:49:39;;;;;;;2.70;1.87;;;;;;;;;;5094697;28;20180;-77
2022/08/29 01:52:06;;;;;;;2.03;1.70;;;;;;;;;;5076788;28;20200;-77
2022/08/29 01:54:32;;;;;;;2.40;1.70;;;;;;;;;;5094695;28;20188;-77
2022/08/29 01:56:59;;;;;;;3.13;1.80;;;;;;;;;;5076777;28;20180;-77
2022/08/29 01:59:26;;;;;;;3.63;1.90;;;;;;;;;;5076809;28;20283;-77
2022/08/29 02:01:58;;;;;;;5.33;1.90;;;;;;;;;;5076359;28;20242;-77
2022/08/29 02:04:24;;;;;;;4.70;2.03;;;;;;;;;;5094588;28;20724;-77
2022/08/29 02:06:51;;;;;;;3.67;1.87;;;;;;;;;;5093417;28;20288;-77
2022/08/29 02:09:17;;;;;;;2.30;1.80;;;;;;;;;;5076384;28;20173;-77
2022/08/29 02:11:45;;;;;;;3.73;2.03;;;;;;;;;;5076279;28;20298;-77
2022/08/29 02:14:11;;;;;;;3.00;1.80;;;;;;;;;;5093019;28;20182;-77
2022/08/29 02:16:37;;;;;;;2.83;1.70;;;;;;;;;;5094391;28;20172;-77
2022/08/29 02:19:03;;;;;;;2.43;1.80;;;;;;;;;;5076028;28;20191;-77
2022/08/29 02:21:30;;;;;;;2.60;1.60;;;;;;;;;;5076591;28;20208;-77
2022/08/29 02:23:57;;;;;;;2.07;1.80;;;;;;;;;;5096290;28;20568;-77
2022/08/29 02:26:23;;;;;;;3.37;1.97;;;;;;;;;;5096186;28;20570;-77
2022/08/29 02:28:51;;;;;;;3.70;2.00;;;;;;;;;;5096011;28;20691;-77
2022/08/29 02:31:18;;;;;;;2.57;1.60;;;;;;;;;;5095975;28;20191;-77
2022/08/29 02:33:45;;;;;;;4.67;2.00;;;;;;;;;;5096229;28;20202;-77
2022/08/29 02:36:11;;;;;;;4.07;1.73;;;;;;;;;;5079304;28;20182;-77
2022/08/29 02:38:38;;;;;;;5.10;1.93;;;;;;;;;;5095334;28;20267;-77
2022/08/29 02:41:04;;;;;;;4.67;1.97;;;;;;;;;;5095792;28;20287;-77
2022/08/29 02:43:30;;;;;;;3.10;1.80;;;;;;;;;;5095663;28;20245;-77
2022/08/29 02:45:56;;;;;;;2.47;1.63;;;;;;;;;;5095728;28;20190;-77
2022/08/29 02:48:23;;;;;;;3.17;2.10;;;;;;;;;;5078857;28;20176;-77
2022/08/29 02:50:50;;;;;;;3.37;1.90;;;;;;;;;;5095867;28;20182;-77
2022/08/29 02:53:18;;;;;;;4.80;2.30;;;;;;;;;;5078984;28;20216;-77
2022/08/29 02:55:45;;;;;;;2.67;1.77;;;;;;;;;;5095636;28;20174;-77
2022/08/29 02:58:12;;;;;;;2.10;1.80;;;;;;;;;;5095257;28;20178;-77
2022/08/29 03:00:39;;;;;;;4.07;1.97;;;;;;;;;;5078856;28;20196;-77
2022/08/29 03:03:05;;;;;;;3.70;1.90;;;;;;;;;;5113630;28;20184;-77
2022/08/29 03:05:33;;;;;;;4.07;2.07;;;;;;;;;;5078833;28;20172;-77
2022/08/29 03:08:00;;;;;;;3.27;2.00;;;;;;;;;;5095349;28;20738;-77
2022/08/29 03:10:27;;;;;;;2.80;1.97;;;;;;;;;;5095346;28;20179;-77
2022/08/29 03:12:53;;;;;;;3.73;1.93;;;;;;;;;;5095152;28;20748;-77
2022/08/29 03:15:20;;;;;;;4.10;2.20;;;;;;;;;;5078727;28;20178;-77
2022/08/29 03:17:46;;;;;;;3.43;1.73;;;;;;;;;;5095125;28;20639;-77
2022/08/29 03:20:13;;;;;;;3.17;1.73;;;;;;;;;;5095222;28;20227;-77
2022/08/29 03:22:39;;;;;;;2.87;1.73;;;;;;;;;;5095347;28;20622;-77
2022/08/29 03:25:06;;;;;;;4.23;2.07;;;;;;;;;;5095056;28;20174;-77
2022/08/29 03:27:33;;;;;;;3.07;2.20;;;;;;;;;;5094878;28;20175;-77
2022/08/29 03:29:59;;;;;;;3.27;1.80;;;;;;;;;;5095149;28;20171;-77
2022/08/29 03:32:26;;;;;;;2.27;1.73;;;;;;;;;;5095014;28;20226;-77
2022/08/29 03:34:52;;;;;;;2.30;1.80;;;;;;;;;;5113226;28;20175;-77
2022/08/29 03:37:18;;;;;;;3.03;2.20;;;;;;;;;;5094666;28;20182;-77
2022/08/29 03:39:44;;;;;;;2.67;1.70;;;;;;;;;;5094774;28;20180;-77
2022/08/29 03:42:10;;;;;;;1.83;1.70;;;;;;;;;;5077985;28;20208;-77
2022/08/29 03:44:37;;;;;;;2.53;1.83;;;;;;;;;;5078244;28;20179;-77
2022/08/29 03:47:04;;;;;;;2.00;1.80;;;;;;;;;;5094645;28;20254;-77
2022/08/29 03:49:30;;;;;;;2.10;1.70;;;;;;;;;;5094170;28;20191;-77
2022/08/29 03:51:56;;;;;;;2.67;1.63;;;;;;;;;;5112781;28;20196;-77
2022/08/29 03:54:22;;;;;;;2.63;1.60;;;;;;;;;;5112815;28;20247;-77
2022/08/29 03:56:48;;;;;;;4.17;2.20;;;;;;;;;;5094774;28;20206;-77
2022/08/29 03:59:15;;;;;;;4.20;2.03;;;;;;;;;;5077840;28;20207;-77
2022/08/29 04:01:41;;;;;;;2.77;2.13;;;;;;;;;;5077721;28;20301;-77
2022/08/29 04:04:07;;;;;;;3.13;2.00;;;;;;;;;;5077978;28;20262;-77
2022/08/29 04:06:33;;;;;;;3.10;1.90;;;;;;;;;;5077721;28;20176;-77
2022/08/29 04:08:59;;;;;;;2.47;1.63;;;;;;;;;;5077409;28;20175;-77
2022/08/29 04:11:26;;;;;;;1.93;1.67;;;;;;;;;;5094241;28;20199;-77
2022/08/29 04:13:53;;;;;;;2.87;2.00;;;;;;;;;;5094445;28;20633;-77
2022/08/29 04:16:20;;;;;;;2.97;2.10;;;;;;;;;;5094390;28;20180;-77
2022/08/29 04:18:46;;;;;;;2.90;1.87;;;;;;;;;;5094242;28;20184;-77
2022/08/29 04:21:12;;;;;;;3.67;2.23;;;;;;;;;;5077511;28;20242;-77
2022/08/29 04:23:39;;;;;;;3.07;2.10;;;;;;;;;;5094273;28;20546;-77
2022/08/29 04:26:05;;;;;;;2.33;2.00;;;;;;;;;;5094202;28;20199;-77
2022/08/29 04:28:31;;;;;;;3.00;1.90;;;;;;;;;;5094116;28;20168;-77
2022/08/29 04:30:57;;;;;;;3.43;2.10;;;;;;;;;;5077704;28;20191;-77
2022/08/29 04:33:25;;;;;;;2.90;1.90;;;;;;;;;;5077468;28;20539;-77
2022/08/29 04:35:51;;;;;;;2.13;1.63;;;;;;;;;;5094243;28;20317;-77
2022/08/29 04:38:18;;;;;;;2.23;1.83;;;;;;;;;;5077133;28;20183;-77
2022/08/29 04:40:44;;;;;;;2.60;2.10;;;;;;;;;;5077523;28;20210;-77
2022/08/29 04:43:11;;;;;;;3.83;1.80;;;;;;;;;;5094752;28;20557;-80
2022/08/29 04:45:39;;;;;;;2.83;1.80;;;;;;;;;;5078268;28;20179;-79
2022/08/29 04:48:07;;;;;;;2.17;1.83;;;;;;;;;;5094364;28;20626;-79
2022/08/29 04:50:34;;;;;;;3.07;2.07;;;;;;;;;;5094566;28;20263;-79
2022/08/29 04:53:01;;;;;;;4.10;2.10;;;;;;;;;;5078101;28;20196;-79
2022/08/29 04:55:28;;;;;;;2.63;1.90;;;;;;;;;;5094630;28;20207;-80
2022/08/29 04:57:57;;;;;;;4.27;2.10;;;;;;;;;;5078539;28;20229;-79
2022/08/29 05:00:25;;;;;;;3.67;2.10;;;;;;;;;;5078727;28;20176;-78
2022/08/29 05:02:51;;;;;;;3.17;1.67;;;;;;;;;;5098117;28;20192;-78
2022/08/29 05:05:17;;;;;;;2.60;1.97;;;;;;;;;;5097999;28;20201;-78
2022/08/29 05:07:45;;;;;;;3.20;2.17;;;;;;;;;;5097907;28;20230;-78
2022/08/29 05:10:18;;;;;;;2.00;1.70;;;;;;;;;;5098094;28;20526;-78
2022/08/29 05:12:45;;;;;;;5.50;1.90;;;;;;;;;;5097777;28;20234;-78
2022/08/29 05:15:12;;;;;;;4.07;2.30;;;;;;;;;;5097850;28;20168;-79
2022/08/29 05:17:38;;;;;;;4.07;1.90;;;;;;;;;;5097728;28;20309;-79
2022/08/29 05:20:06;;;;;;;2.50;1.70;;;;;;;;;;5097692;28;20176;-79
2022/08/29 05:22:32;;;;;;;2.83;1.73;;;;;;;;;;5134782;22;20251;-75
2022/08/29 05:24:58;;;;;;;2.77;1.77;;;;;;;;;;5097326;28;20212;-75
2022/08/29 05:27:24;;;;;;;2.50;1.70;;;;;;;;;;5080614;28;20222;-75
2022/08/29 05:29:51;;;;;;;2.73;1.70;;;;;;;;;;5097312;28;20179;-75
2022/08/29 05:32:18;;;;;;;3.73;1.80;;;;;;;;;;5097140;28;20191;-75
2022/08/29 05:34:45;;;;;;;3.37;1.93;;;;;;;;;;5115442;28;20252;-75
2022/08/29 05:37:13;;;;;;;3.03;2.00;;;;;;;;;;5096529;28;20179;-75
2022/08/29 05:39:40;;;;;;;3.40;2.40;;;;;;;;;;5097013;28;20182;-75
2022/08/29 05:42:06;;;;;;;3.40;1.77;;;;;;;;;;5096800;28;20301;-75
2022/08/29 05:44:32;;;;;;;4.00;2.20;;;;;;;;;;5080340;28;20633;-75
2022/08/29 05:46:59;;;;;;;2.20;1.87;;;;;;;;;;5096808;28;20179;-75
2022/08/29 05:49:26;;;;;;;4.60;1.80;;;;;;;;;;5096770;28;20175;-75
2022/08/29 05:51:52;;;;;;;2.67;1.70;;;;;;;;;;5096995;28;20172;-75
2022/08/29 05:54:18;;;;;;;3.70;2.00;;;;;;;;;;5096871;28;20180;-75
2022/08/29 05:56:44;;;;;;;2.87;2.03;;;;;;;;;;5096633;28;20179;-76
2022/08/29 05:59:12;;;;;;;4.23;2.50;;;;;;;;;;5096749;28;20207;-76
2022/08/29 06:01:38;;;;;;;3.63;2.87;;;;;;;;;;5114804;28;20705;-76
2022/08/29 06:04:05;;;;;;;4.90;2.90;;;;;;;;;;5096727;28;20314;-76
2022/08/29 06:06:31;;;;;;;4.43;2.87;;;;;;;;;;5096760;28;20183;-76
2022/08/29 06:08:57;;;;;;;4.10;2.83;;;;;;;;;;5096423;28;20521;-75
2022/08/29 06:11:25;;;;;;;4.07;2.57;;;;;;;;;;5096652;28;20215;-76
2022/08/29 06:13:51;;;;;;;3.87;2.63;;;;;;;;;;5095659;28;20609;-76
2022/08/29 06:16:19;;;;;;;4.43;2.60;;;;;;;;;;5096308;28;20187;-76
2022/08/29 06:18:45;;;;;;;4.00;2.67;;;;;;;;;;5079460;28;20187;-76
2022/08/29 06:21:11;;;;;;;4.87;2.60;;;;;;;;;;5096389;28;20210;-76
2022/08/29 06:23:38;;;;;;;3.83;2.77;;;;;;;;;;5114489;28;20726;-76
2022/08/29 06:26:05;;;;;;;4.60;2.60;;;;;;;;;;5096127;28;20536;-76
2022/08/29 06:28:32;;;;;;;4.73;3.03;;;;;;;;;;5095972;28;20236;-75
2022/08/29 06:31:30;;;;;;;4.00;2.70;;;;;;;;;;5079259;28;20205;-75
2022/08/29 06:33:58;;;;;;;5.03;2.90;;;;;;;;;;5052104;28;20301;-75
2022/08/29 06:36:25;;;;;;;3.20;2.70;;;;;;;;;;5096097;28;20192;-75
2022/08/29 06:38:51;;;;;;;4.97;3.00;;;;;;;;;;5095786;28;20172;-75
2022/08/29 06:41:17;;;;;;;5.70;3.07;;;;;;;;;;5079098;28;20204;-75
2022/08/29 06:43:44;;;;;;;3.77;2.70;;;;;;;;;;5096140;28;20230;-75
2022/08/29 06:46:21;;;;;;;4.13;2.70;;;;;;;;;;5079043;28;20186;-75
2022/08/29 06:48:47;;;;;;;4.17;2.53;;;;;;;;;;5095717;28;20171;-75
2022/08/29 06:51:13;;;;;;;3.50;2.70;;;;;;;;;;5078997;28;20179;-75
2022/08/29 06:53:39;;;;;;;4.83;3.23;;;;;;;;;;5078723;28;20213;-75
2022/08/29 06:56:05;;;;;;;3.97;2.77;;;;;;;;;;5078841;28;20183;-75
2022/08/29 06:58:32;;;;;;;4.73;2.93;;;;;;;;;;5095590;28;20171;-75
2022/08/29 07:00:58;;;;;;;3.93;2.80;;;;;;;;;;5078862;28;20231;-75
2022/08/29 07:03:24;;;;;;;5.67;2.97;;;;;;;;;;5095540;28;20571;-75
2022/08/29 07:05:51;;;;;;;4.57;2.70;;;;;;;;;;5095538;28;20172;-75
2022/08/29 07:08:17;;;;;;;5.33;2.67;;;;;;;;;;5113321;28;20167;-75
2022/08/29 07:10:46;;;;;;;5.83;2.60;;;;;;;;;;5078499;28;20176;-75
2022/08/29 07:13:12;;;;;;;4.03;2.57;;;;;;;;;;5078668;28;20535;-75
2022/08/29 07:15:38;;;;;;;4.23;2.67;;;;;;;;;;5095597;28;20648;-75
2022/08/29 07:18:04;;;;;;;3.93;2.40;;;;;;;;;;5078277;28;20217;-75
2022/08/29 07:20:30;;;;;;;6.17;2.43;;;;;;;;;;5113416;28;20704;-75
2022/08/29 07:22:56;;;;;;;3.40;2.50;;;;;;;;;;5078209;28;20311;-75
2022/08/29 07:25:23;;;;;;;4.47;2.17;;;;;;;;;;5094104;28;20168;-75
2022/08/29 07:27:50;;;;;;;7.17;2.73;;;;;;;;;;5078175;28;20229;-75
2022/08/29 07:30:16;;;;;;;3.90;2.23;;;;;;;;;;5095181;28;20171;-75
2022/08/29 07:32:44;;;;;;;5.83;2.47;;;;;;;;;;5078421;28;20234;-75
2022/08/29 07:35:11;;;;;;;5.83;2.67;;;;;;;;;;5078304;28;20645;-75
2022/08/29 07:37:38;;;;;;;3.77;2.17;;;;;;;;;;5094899;28;20176;-75
2022/08/29 07:40:04;;;;;;;6.37;2.50;;;;;;;;;;5095088;28;20729;-75
2022/08/29 07:42:30;;;;;;;4.67;2.20;;;;;;;;;;5112931;28;20210;-75
2022/08/29 07:44:57;;;;;;;5.90;2.70;;;;;;;;;;5078241;28;20180;-75
2022/08/29 07:47:25;;;;;;;6.03;2.40;;;;;;;;;;5094602;28;20183;-76
2022/08/29 07:49:51;;;;;;;6.90;2.70;;;;;;;;;;5078152;28;20172;-76
2022/08/29 07:52:18;;;;;;;8.63;2.50;;;;;;;;;;5112785;28;20207;-76
2022/08/29 07:54:44;;;;;;;7.43;2.90;;;;;;;;;;5094695;28;20630;-75
2022/08/29 07:57:10;;;;;;;4.43;2.43;;;;;;;;;;5077704;28;20182;-77
2022/08/29 07:59:36;;;;;;;4.50;2.20;;;;;;;;;;5077803;28;20187;-77
2022/08/29 08:02:02;;;;;;;9.13;2.67;;;;;;;;;;5094431;28;20200;-77
2022/08/29 08:04:28;;;;;;;10.67;2.97;;;;;;;;;;5077768;28;20209;-76
2022/08/29 08:06:54;;;;;;;4.53;2.30;;;;;;;;;;5094577;28;20199;-75
2022/08/29 08:09:20;;;;;;;8.33;2.50;;;;;;;;;;5077834;28;20179;-76
2022/08/29 08:11:47;;;;;;;3.37;2.30;;;;;;;;;;5077630;28;20229;-76
2022/08/29 08:14:14;;;;;;;5.20;2.37;;;;;;;;;;5094386;28;20271;-76
2022/08/29 08:16:40;;;;;;;4.17;2.20;;;;;;;;;;5094133;28;20266;-76
2022/08/29 08:19:06;;;;;;;3.80;2.27;;;;;;;;;;5094457;28;20179;-77
2022/08/29 08:21:33;;;;;;;4.37;2.27;;;;;;;;;;5094548;28;20207;-76
2022/08/29 08:23:59;;;;;;;5.23;2.30;;;;;;;;;;5112222;28;20200;-76
2022/08/29 08:26:25;;;;;;;3.53;2.20;;;;;;;;;;5078280;28;20187;-77
2022/08/29 08:28:52;;;;;;;4.30;1.90;;;;;;;;;;5094198;28;20175;-77
2022/08/29 08:31:18;;;;;;;4.67;2.30;;;;;;;;;;5094254;28;20578;-76
2022/08/29 08:33:45;;;;;;;5.23;2.10;;;;;;;;;;5094087;28;20191;-77
2022/08/29 08:36:22;;;;;;;5.20;2.07;;;;;;;;;;5096553;28;20549;-76
2022/08/29 08:38:49;;;;;;;4.73;1.83;;;;;;;;;;5098797;28;20175;-76
2022/08/29 08:41:16;;;;;;;5.10;1.87;;;;;;;;;;5098691;28;20226;-76
2022/08/29 08:43:49;;;;;;;3.50;2.00;;;;;;;;;;5116393;28;20184;-75
2022/08/29 08:46:16;;;;;;;4.70;2.00;;;;;;;;;;5098149;28;20172;-77
2022/08/29 08:48:43;;;;;;;5.57;2.37;;;;;;;;;;5097884;28;20634;-76
2022/08/29 08:51:18;;;;;;;3.70;2.00;;;;;;;;;;5098261;28;20183;-76
2022/08/29 08:53:47;;;;;;;3.57;1.80;;;;;;;;;;5098049;28;20236;-78
2022/08/29 08:56:16;;;;;;;4.40;1.90;;;;;;;;;;5097989;28;20178;-76
2022/08/29 08:58:52;;;;;;;4.77;1.70;;;;;;;;;;5098464;28;20223;-74
2022/08/29 09:01:21;;;;;;;3.47;1.90;;;;;;;;;;5098232;28;20207;-79
2022/08/29 09:03:47;;;;;;;3.93;1.90;;;;;;;;;;5116417;28;20183;-80
2022/08/29 09:06:31;;;;;;;3.95;1.95;;;;;;;;;;5098311;28;20171;-78
2022/08/29 09:09:07;;;;;;;4.95;1.70;;;;;;;;;;5115871;28;20191;-75
2022/08/29 09:11:35;;;;;;;3.80;1.90;;;;;;;;;;5097909;28;20175;-77
2022/08/29 09:14:01;;;;;;;4.63;2.15;;;;;;;;;;5115813;28;20188;-76
2022/08/29 09:16:36;;;;;;;3.58;1.95;;;;;;;;;;5097711;28;20270;-77
2022/08/29 09:19:04;;;;;;;5.75;2.00;;;;;;;;;;5115720;28;20167;-76
2022/08/29 09:21:33;;;;;;;3.85;2.10;;;;;;;;;;5080755;28;20255;-77
2022/08/29 09:24:00;;;;;;;4.00;2.05;;;;;;;;;;5097307;28;20211;-76
2022/08/29 09:26:26;;;;;;;3.80;1.80;;;;;;;;;;5097531;28;20604;-75
2022/08/29 09:28:53;;;;;;;3.15;1.90;;;;;;;;;;5097351;28;20300;-76
2022/08/29 09:31:24;;;;;;;3.75;1.80;;;;;;;;;;5080544;28;20180;-75
2022/08/29 09:33:55;;;;;;;4.32;1.90;;;;;;;;;;5080588;28;20360;-75
2022/08/29 09:36:39;;;;;;;5.07;2.20;;;;;;;;;;5115476;28;20164;-75
2022/08/29 09:39:14;;;;;;;5.00;2.28;;;;;;;;;;5097059;28;20175;-76
2022/08/29 09:41:41;;;;;;;13.85;3.95;;;;;;;;;;5097026;28;20205;-75
2022/08/29 09:44:08;;;;;;;4.07;2.00;;;;;;;;;;5096955;28;20213;-75
2022/08/29 09:46:34;;;;;;;5.00;2.25;;;;;;;;;;5079812;28;20168;-75
2022/08/29 09:49:00;;;;;;;4.40;1.90;;;;;;;;;;5114724;28;20182;-75
2022/08/29 09:51:27;;;;;;;4.88;2.03;;;;;;;;;;5096845;28;20184;-75
2022/08/29 09:53:53;;;;;;;3.85;1.90;;;;;;;;;;5096904;28;20286;-75
2022/08/29 09:56:25;;;;;;;5.90;2.10;;;;;;;;;;5096906;28;20254;-75
2022/08/29 09:58:59;;;;;;;3.75;2.00;;;;;;;;;;5096820;28;20179;-76
2022/08/29 10:01:25;;;;;;;2.78;1.85;;;;;;;;;;5096920;28;20283;-76
2022/08/29 10:03:59;;;;;;;4.55;2.10;;;;;;;;;;5080014;28;20333;-76
2022/08/29 10:06:27;;;;;;;6.22;2.30;;;;;;;;;;5096800;28;20179;-75
2022/08/29 10:09:01;;;;;;;3.33;2.15;;;;;;;;;;5114604;28;20160;-76
2022/08/29 10:11:30;;;;;;;3.45;1.92;;;;;;;;;;5114825;28;20175;-75
2022/08/29 10:13:58;;;;;;;3.70;2.05;;;;;;;;;;5114691;28;20223;-76
2022/08/29 10:16:32;;;;;;;4.40;1.88;;;;;;;;;;5096364;28;20168;-77
2022/08/29 13:28:49;;;;;;;3.50;1.73;;;;;;;;;;5118821;22;20308;-79
2022/08/29 13:31:15;;;;;;;3.15;1.70;;;;;;;;;;5046211;28;20178;-79
2022/08/29 13:33:52;;;;;;;5.38;1.50;;;;;;;;;;5054370;28;20546;-79
2022/08/29 13:36:37;;;;;;;3.47;1.80;;;;;;;;;;5045853;28;20174;-79
2022/08/29 13:39:23;;;;;;;2.55;1.60;;;;;;;;;;5033593;28;20174;-78
2022/08/29 13:45:06;;;;;;;4.28;1.65;;;;;;;;;;5035030;28;20244;-78
2022/08/29 16:18:10;;;;;;;3.28;1.80;;;;;;;;;;5496883;22;20212;-78
2022/08/29 16:20:36;;;;;;;1.85;1.60;;;;;;;;;;5070859;28;20223;-78
2022/08/29 16:23:03;;;;;;;4.07;1.55;;;;;;;;;;5070681;28;20173;-78
2022/08/29 16:25:29;;;;;;;2.50;1.70;;;;;;;;;;5070793;28;20177;-78
2022/08/29 16:27:56;;;;;;;3.00;1.67;;;;;;;;;;5071616;28;20193;-78
2022/08/29 16:30:22;;;;;;;2.22;1.63;;;;;;;;;;5111828;22;20169;-75
2022/08/29 16:32:49;;;;;;;3.05;1.98;;;;;;;;;;5069358;28;20208;-76
2022/08/29 16:35:15;;;;;;;3.58;1.70;;;;;;;;;;5070750;28;20210;-75
2022/08/29 16:37:42;;;;;;;2.72;1.63;;;;;;;;;;5070446;28;20176;-76
2022/08/29 16:40:08;;;;;;;4.00;1.73;;;;;;;;;;5054098;28;20264;-76
2022/08/29 16:42:38;;;;;;;3.25;1.63;;;;;;;;;;5072095;28;20193;-76
2022/08/29 16:45:05;;;;;;;4.18;1.70;;;;;;;;;;5070662;28;20169;-76
2022/08/29 16:47:31;;;;;;;4.18;1.70;;;;;;;;;;5071696;28;20631;-76
2022/08/29 16:49:57;;;;;;;2.60;1.50;;;;;;;;;;5070668;28;20177;-76
2022/08/29 16:52:23;;;;;;;3.38;1.90;;;;;;;;;;5070463;28;20686;-76
2022/08/29 16:54:49;;;;;;;5.00;1.85;;;;;;;;;;5070386;28;20226;-76
2022/08/29 16:57:16;;;;;;;3.72;1.77;;;;;;;;;;5055710;28;20179;-76
2022/08/29 16:59:42;;;;;;;3.03;1.50;;;;;;;;;;5074561;28;20177;-76
2022/08/29 17:02:08;;;;;;;3.20;1.65;;;;;;;;;;5074364;28;20203;-76
2022/08/29 17:04:34;;;;;;;3.20;1.70;;;;;;;;;;5057746;28;20211;-76
2022/08/29 17:07:01;;;;;;;3.45;1.60;;;;;;;;;;5057505;28;20209;-76
2022/08/29 17:16:48;;;;;;;2.75;1.70;;;;;;;;;;5075476;28;20188;-76
2022/08/29 17:19:14;;;;;;;2.70;1.73;;;;;;;;;;5057493;28;20170;-76
2022/08/29 17:21:40;;;;;;;2.15;1.60;;;;;;;;;;5073780;28;20228;-76
2022/08/29 17:24:06;;;;;;;2.38;1.70;;;;;;;;;;5073702;28;20197;-76
2022/08/29 17:26:33;;;;;;;2.78;1.73;;;;;;;;;;5057192;28;20185;-76
2022/08/29 17:28:59;;;;;;;2.55;1.77;;;;;;;;;;5073968;28;20173;-76
2022/08/29 17:31:25;;;;;;;3.10;1.58;;;;;;;;;;5073574;28;20228;-76
2022/08/29 17:33:51;;;;;;;3.67;1.73;;;;;;;;;;5073720;28;20169;-76
2022/08/29 17:36:17;;;;;;;2.97;1.70;;;;;;;;;;5057041;28;20177;-76
2022/08/29 17:38:44;;;;;;;2.97;1.90;;;;;;;;;;5073353;28;20703;-76
2022/08/29 17:41:11;;;;;;;3.22;1.60;;;;;;;;;;5073886;28;20193;-76
2022/08/29 17:43:37;;;;;;;3.85;1.73;;;;;;;;;;5056989;28;20181;-76
2022/08/29 17:46:03;;;;;;;2.80;1.77;;;;;;;;;;5073583;28;20246;-75
2022/08/29 17:48:29;;;;;;;4.22;1.90;;;;;;;;;;5073229;28;20524;-76
2022/08/29 17:50:56;;;;;;;2.38;1.77;;;;;;;;;;5073319;28;20284;-76
2022/08/29 17:53:23;;;;;;;2.75;1.70;;;;;;;;;;5073403;28;20234;-76
2022/08/29 17:55:50;;;;;;;3.53;1.67;;;;;;;;;;5073282;28;20169;-76
2022/08/29 17:58:17;;;;;;;2.65;1.80;;;;;;;;;;5073128;28;20177;-76
2022/08/29 18:00:43;;;;;;;2.67;1.60;;;;;;;;;;5073272;28;20192;-76
2022/08/29 18:03:09;;;;;;;4.28;1.77;;;;;;;;;;5073280;28;20252;-75
2022/08/29 18:05:35;;;;;;;4.70;1.77;;;;;;;;;;5056722;28;20177;-76
2022/08/29 18:08:01;;;;;;;4.35;1.80;;;;;;;;;;5072039;28;20302;-76
2022/08/29 18:10:27;;;;;;;2.97;1.60;;;;;;;;;;5074155;28;20172;-76
2022/08/29 18:12:53;;;;;;;2.45;1.80;;;;;;;;;;5073028;28;20300;-76
2022/08/29 18:15:19;;;;;;;2.80;1.80;;;;;;;;;;5056224;28;20256;-75
2022/08/29 18:17:45;;;;;;;3.00;1.77;;;;;;;;;;5072793;28;20201;-76
2022/08/29 18:20:14;;;;;;;3.67;1.77;;;;;;;;;;5056059;28;20173;-75
2022/08/29 18:22:42;;;;;;;2.53;2.05;;;;;;;;;;5074052;28;20192;-75
2022/08/29 18:25:08;;;;;;;3.25;1.60;;;;;;;;;;5072899;28;20169;-75
2022/08/29 18:27:34;;;;;;;2.05;1.70;;;;;;;;;;5072720;28;20638;-75
2022/08/29 18:30:05;;;;;;;2.80;1.85;;;;;;;;;;5056178;28;20657;-75
2022/08/29 18:32:31;;;;;;;2.45;1.58;;;;;;;;;;5056570;28;20307;-75
2022/08/29 18:34:56;;;;;;;2.17;1.55;;;;;;;;;;5055896;28;20211;-75
2022/08/29 18:37:22;;;;;;;2.53;1.65;;;;;;;;;;5072550;28;20276;-75
2022/08/29 18:39:49;;;;;;;3.78;1.73;;;;;;;;;;5055928;28;20173;-75
2022/08/29 18:42:15;;;;;;;3.90;1.80;;;;;;;;;;5072441;28;20200;-75
2022/08/29 18:44:41;;;;;;;3.08;1.83;;;;;;;;;;5055825;28;20180;-75
2022/08/29 18:47:07;;;;;;;3.17;1.50;;;;;;;;;;5055677;28;20556;-75
2022/08/29 18:52:18;;;;;;;2.42;1.63;;;;;;;;;;5063850;28;20219;-75
2022/08/29 18:54:44;;;;;;;3.63;1.80;;;;;;;;;;5072210;28;20177;-75
2022/08/29 18:57:10;;;;;;;2.03;1.70;;;;;;;;;;5071804;28;20185;-76
2022/08/29 18:59:37;;;;;;;2.53;1.50;;;;;;;;;;5055370;28;20173;-75
2022/08/29 19:02:03;;;;;;;3.67;1.92;;;;;;;;;;5071770;28;20197;-75
2022/08/29 19:04:29;;;;;;;2.45;1.77;;;;;;;;;;5071868;28;20196;-75
2022/08/29 19:06:55;;;;;;;4.53;1.75;;;;;;;;;;5072084;28;20220;-75
2022/08/29 19:09:21;;;;;;;3.13;1.70;;;;;;;;;;5071450;28;20326;-75
2022/08/29 19:11:47;;;;;;;4.10;1.75;;;;;;;;;;5054955;28;20208;-75
2022/08/29 19:14:13;;;;;;;3.75;2.00;;;;;;;;;;5055200;28;20181;-75
2022/08/29 19:16:40;;;;;;;3.17;1.70;;;;;;;;;;5071506;28;20585;-75
2022/08/29 19:19:06;;;;;;;3.08;1.70;;;;;;;;;;5072783;28;20215;-75
2022/08/29 19:21:32;;;;;;;3.28;1.70;;;;;;;;;;5072714;28;20770;-75
2022/08/29 19:23:59;;;;;;;3.08;1.95;;;;;;;;;;5055197;28;20271;-75
2022/08/29 19:26:30;;;;;;;4.43;1.70;;;;;;;;;;5072772;28;20546;-75
2022/08/29 19:28:58;;;;;;;2.72;1.60;;;;;;;;;;5054844;28;20177;-75
2022/08/29 19:31:25;;;;;;;2.22;1.75;;;;;;;;;;5071410;28;20236;-75
2022/08/29 19:33:52;;;;;;;2.33;1.52;;;;;;;;;;5055402;28;20173;-75
2022/08/29 19:36:18;;;;;;;2.58;1.70;;;;;;;;;;5071358;28;20585;-75
2022/08/29 19:38:44;;;;;;;2.40;1.70;;;;;;;;;;5071193;28;20176;-75
2022/08/29 19:41:11;;;;;;;3.17;1.70;;;;;;;;;;5071179;28;20636;-74
2022/08/29 19:43:54;;;;;;;3.08;1.70;;;;;;;;;;5054570;28;20181;-75
2022/08/29 19:46:21;;;;;;;2.40;1.73;;;;;;;;;;5071515;28;20644;-76
2022/08/29 19:48:47;;;;;;;2.85;2.00;;;;;;;;;;5070944;28;20569;-76
2022/08/29 19:51:14;;;;;;;4.10;2.00;;;;;;;;;;5071128;28;20304;-76
2022/08/29 19:53:41;;;;;;;2.15;1.70;;;;;;;;;;5071098;28;20187;-76
2022/08/29 19:56:08;;;;;;;3.08;1.73;;;;;;;;;;5070660;28;20639;-76
2022/08/29 19:58:35;;;;;;;2.73;1.80;;;;;;;;;;5070923;28;20216;-76
2022/08/29 20:01:02;;;;;;;3.23;1.70;;;;;;;;;;5070775;28;20197;-76
2022/08/29 20:03:28;;;;;;;4.20;1.80;;;;;;;;;;5070787;28;20192;-76
2022/08/29 20:05:54;;;;;;;2.42;1.90;;;;;;;;;;5054403;28;20169;-76
2022/08/29 20:08:20;;;;;;;3.20;1.77;;;;;;;;;;5071553;28;20594;-76
2022/08/29 20:10:47;;;;;;;2.20;1.80;;;;;;;;;;5070785;28;20262;-76
2022/08/29 20:13:13;;;;;;;3.90;1.90;;;;;;;;;;5071033;28;20209;-76
2022/08/29 20:15:39;;;;;;;3.73;1.83;;;;;;;;;;5054680;28;20180;-76
2022/08/29 20:18:05;;;;;;;2.27;1.73;;;;;;;;;;5054230;28;20259;-76
2022/08/29 20:20:34;;;;;;;3.07;1.87;;;;;;;;;;5054238;28;20410;-76
2022/08/29 20:23:00;;;;;;;4.03;1.97;;;;;;;;;;5070854;28;20177;-76
2022/08/29 20:25:27;;;;;;;3.17;1.80;;;;;;;;;;5054151;28;20188;-76
2022/08/29 20:27:53;;;;;;;2.40;2.00;;;;;;;;;;5054413;28;20181;-76
2022/08/29 20:30:21;;;;;;;2.10;1.83;;;;;;;;;;5054235;28;20226;-76
2022/08/29 20:32:47;;;;;;;3.97;1.90;;;;;;;;;;5073577;28;20212;-76
2022/08/29 20:37:07;;;;;;;5.17;1.80;;;;;;;;;;5058290;28;20188;-76
2022/08/29 20:38:00;;;;;;;3.63;1.50;;;;;;;;;;5075832;28;20185;-76